sensor_id;sensor_type;location;lat;lon;timestamp;P1;durP1;ratioP1;P2;durP2;ratioP2
12302;SDS011;6214;48.012;7.862;2022-11-20T00:01:26;12.30;;;2.30;;
12302;SDS011;6214;48.012;7.862;2022-11-20T00:03:58;11.70;;;2.20;;
12302;SDS011;6214;48.012;7.862;2022-11-20T00:06:26;13.20;;;2.07;;
12302;SDS011;6214;48.012;7.862;2022-11-20T00:08:54;13.52;;;2.40;;
12302;SDS011;6214;48.012;7.862;2022-11-20T00:11:23;11.82;;;2.42;;
12302;SDS011;6214;48.012;7.862;2022-11-20T00:13:53;12.38;;;2.30;;
12302;SDS011;6214;48.012;7.862;2022-11-20T00:16:22;13.25;;;2.50;;
12302;SDS011;6214;48.012;7.862;2022-11-20T00:18:51;12.20;;;2.20;;
12302;SDS011;6214;48.012;7.862;2022-11-20T00:21:22;12.55;;;2.08;;
12302;SDS011;6214;48.012;7.862;2022-11-20T00:23:51;12.43;;;2.22;;
12302;SDS011;6214;48.012;7.862;2022-11-20T00:26:21;12.18;;;2.00;;
12302;SDS011;6214;48.012;7.862;2022-11-20T00:28:59;12.75;;;2.38;;
12302;SDS011;6214;48.012;7.862;2022-11-20T00:31:28;12.43;;;2.10;;
12302;SDS011;6214;48.012;7.862;2022-11-20T00:33:56;13.73;;;2.70;;
12302;SDS011;6214;48.012;7.862;2022-11-20T00:36:24;12.60;;;2.63;;
12302;SDS011;6214;48.012;7.862;2022-11-20T00:38:53;12.50;;;2.60;;
12302;SDS011;6214;48.012;7.862;2022-11-20T00:41:21;14.50;;;3.53;;
12302;SDS011;6214;48.012;7.862;2022-11-20T00:43:48;13.10;;;3.00;;
12302;SDS011;6214;48.012;7.862;2022-11-20T00:46:18;13.20;;;3.28;;
12302;SDS011;6214;48.012;7.862;2022-11-20T00:48:46;13.17;;;3.40;;
12302;SDS011;6214;48.012;7.862;2022-11-20T00:51:14;13.32;;;3.10;;
12302;SDS011;6214;48.012;7.862;2022-11-20T00:53:43;12.63;;;2.85;;
12302;SDS011;6214;48.012;7.862;2022-11-20T00:56:12;12.90;;;3.10;;
12302;SDS011;6214;48.012;7.862;2022-11-20T00:58:40;12.80;;;2.90;;
12302;SDS011;6214;48.012;7.862;2022-11-20T01:01:10;12.93;;;3.30;;
12302;SDS011;6214;48.012;7.862;2022-11-20T01:03:40;13.70;;;3.43;;
12302;SDS011;6214;48.012;7.862;2022-11-20T01:06:10;12.90;;;3.40;;
12302;SDS011;6214;48.012;7.862;2022-11-20T01:08:40;13.02;;;3.25;;
12302;SDS011;6214;48.012;7.862;2022-11-20T01:11:09;13.77;;;3.22;;
12302;SDS011;6214;48.012;7.862;2022-11-20T01:13:41;14.05;;;3.30;;
12302;SDS011;6214;48.012;7.862;2022-11-20T01:16:13;13.37;;;3.50;;
12302;SDS011;6214;48.012;7.862;2022-11-20T01:18:49;14.32;;;2.90;;
12302;SDS011;6214;48.012;7.862;2022-11-20T01:21:19;12.10;;;2.78;;
12302;SDS011;6214;48.012;7.862;2022-11-20T01:23:48;12.40;;;2.70;;
12302;SDS011;6214;48.012;7.862;2022-11-20T01:26:17;13.02;;;2.70;;
12302;SDS011;6214;48.012;7.862;2022-11-20T01:28:46;12.48;;;2.70;;
12302;SDS011;6214;48.012;7.862;2022-11-20T01:31:24;12.33;;;2.53;;
12302;SDS011;6214;48.012;7.862;2022-11-20T01:33:53;12.20;;;2.50;;
12302;SDS011;6214;48.012;7.862;2022-11-20T01:36:23;12.80;;;2.90;;
12302;SDS011;6214;48.012;7.862;2022-11-20T01:38:52;12.88;;;2.60;;
12302;SDS011;6214;48.012;7.862;2022-11-20T01:41:20;12.90;;;2.90;;
12302;SDS011;6214;48.012;7.862;2022-11-20T01:44:09;14.55;;;3.80;;
12302;SDS011;6214;48.012;7.862;2022-11-20T01:46:38;13.60;;;2.92;;
12302;SDS011;6214;48.012;7.862;2022-11-20T01:49:19;14.30;;;3.10;;
12302;SDS011;6214;48.012;7.862;2022-11-20T01:51:50;12.50;;;2.60;;
12302;SDS011;6214;48.012;7.862;2022-11-20T01:54:24;12.60;;;2.88;;
12302;SDS011;6214;48.012;7.862;2022-11-20T01:56:58;13.68;;;3.10;;
12302;SDS011;6214;48.012;7.862;2022-11-20T01:59:26;12.70;;;2.90;;
12302;SDS011;6214;48.012;7.862;2022-11-20T02:01:55;12.48;;;2.70;;
12302;SDS011;6214;48.012;7.862;2022-11-20T02:04:22;14.20;;;4.10;;
12302;SDS011;6214;48.012;7.862;2022-11-20T02:07:08;13.40;;;2.73;;
12302;SDS011;6214;48.012;7.862;2022-11-20T02:09:37;12.90;;;3.05;;
12302;SDS011;6214;48.012;7.862;2022-11-20T02:12:04;12.80;;;2.45;;
12302;SDS011;6214;48.012;7.862;2022-11-20T02:14:31;13.32;;;2.60;;
12302;SDS011;6214;48.012;7.862;2022-11-20T02:16:58;12.18;;;2.55;;
12302;SDS011;6214;48.012;7.862;2022-11-20T02:19:30;12.60;;;2.58;;
12302;SDS011;6214;48.012;7.862;2022-11-20T02:24:44;13.05;;;2.72;;
12302;SDS011;6214;48.012;7.862;2022-11-20T02:27:13;12.70;;;2.60;;
12302;SDS011;6214;48.012;7.862;2022-11-20T02:32:46;12.25;;;2.40;;
12302;SDS011;6214;48.012;7.862;2022-11-20T02:35:09;13.90;;;2.50;;
12302;SDS011;6214;48.012;7.862;2022-11-20T02:37:58;12.35;;;2.20;;
12302;SDS011;6214;48.012;7.862;2022-11-20T02:40:27;12.30;;;2.60;;
12302;SDS011;6214;48.012;7.862;2022-11-20T02:42:55;12.90;;;2.70;;
12302;SDS011;6214;48.012;7.862;2022-11-20T02:45:23;13.38;;;2.45;;
12302;SDS011;6214;48.012;7.862;2022-11-20T02:47:51;12.20;;;2.60;;
12302;SDS011;6214;48.012;7.862;2022-11-20T02:50:18;13.07;;;2.70;;
12302;SDS011;6214;48.012;7.862;2022-11-20T02:52:45;12.77;;;2.70;;
12302;SDS011;6214;48.012;7.862;2022-11-20T02:55:13;12.07;;;2.22;;
12302;SDS011;6214;48.012;7.862;2022-11-20T02:57:40;12.60;;;2.60;;
12302;SDS011;6214;48.012;7.862;2022-11-20T03:00:07;12.10;;;2.00;;
12302;SDS011;6214;48.012;7.862;2022-11-20T03:02:34;12.80;;;2.50;;
12302;SDS011;6214;48.012;7.862;2022-11-20T03:05:01;11.90;;;2.30;;
12302;SDS011;6214;48.012;7.862;2022-11-20T03:07:29;12.07;;;2.20;;
12302;SDS011;6214;48.012;7.862;2022-11-20T03:09:56;12.32;;;2.10;;
12302;SDS011;6214;48.012;7.862;2022-11-20T03:12:23;11.85;;;2.10;;
12302;SDS011;6214;48.012;7.862;2022-11-20T03:14:50;12.70;;;2.10;;
12302;SDS011;6214;48.012;7.862;2022-11-20T03:17:18;11.93;;;2.20;;
12302;SDS011;6214;48.012;7.862;2022-11-20T03:19:46;11.93;;;2.00;;
12302;SDS011;6214;48.012;7.862;2022-11-20T03:22:12;12.73;;;2.10;;
12302;SDS011;6214;48.012;7.862;2022-11-20T03:24:39;13.00;;;2.10;;
12302;SDS011;6214;48.012;7.862;2022-11-20T03:27:06;12.10;;;2.10;;
12302;SDS011;6214;48.012;7.862;2022-11-20T03:29:35;11.90;;;2.10;;
12302;SDS011;6214;48.012;7.862;2022-11-20T03:32:02;11.70;;;2.00;;
12302;SDS011;6214;48.012;7.862;2022-11-20T03:34:29;12.20;;;2.30;;
12302;SDS011;6214;48.012;7.862;2022-11-20T03:36:56;12.75;;;2.30;;
12302;SDS011;6214;48.012;7.862;2022-11-20T03:39:23;13.40;;;2.47;;
12302;SDS011;6214;48.012;7.862;2022-11-20T03:41:50;12.00;;;2.60;;
12302;SDS011;6214;48.012;7.862;2022-11-20T03:44:17;13.55;;;2.92;;
12302;SDS011;6214;48.012;7.862;2022-11-20T03:46:47;12.90;;;2.40;;
12302;SDS011;6214;48.012;7.862;2022-11-20T03:49:14;12.50;;;2.50;;
12302;SDS011;6214;48.012;7.862;2022-11-20T03:51:41;13.23;;;2.60;;
12302;SDS011;6214;48.012;7.862;2022-11-20T03:54:08;13.00;;;2.50;;
12302;SDS011;6214;48.012;7.862;2022-11-20T03:56:36;12.20;;;2.40;;
12302;SDS011;6214;48.012;7.862;2022-11-20T03:59:04;11.73;;;2.25;;
12302;SDS011;6214;48.012;7.862;2022-11-20T04:01:34;13.63;;;2.45;;
12302;SDS011;6214;48.012;7.862;2022-11-20T04:04:02;12.18;;;2.20;;
12302;SDS011;6214;48.012;7.862;2022-11-20T04:06:30;12.43;;;2.33;;
12302;SDS011;6214;48.012;7.862;2022-11-20T04:09:01;12.50;;;2.30;;
12302;SDS011;6214;48.012;7.862;2022-11-20T04:11:29;11.75;;;2.15;;
12302;SDS011;6214;48.012;7.862;2022-11-20T04:13:59;12.23;;;2.25;;
12302;SDS011;6214;48.012;7.862;2022-11-20T04:16:31;11.90;;;2.10;;
12302;SDS011;6214;48.012;7.862;2022-11-20T04:19:00;12.40;;;2.50;;
12302;SDS011;6214;48.012;7.862;2022-11-20T04:21:29;11.73;;;2.10;;
12302;SDS011;6214;48.012;7.862;2022-11-20T04:23:56;12.00;;;2.10;;
12302;SDS011;6214;48.012;7.862;2022-11-20T04:26:24;12.00;;;2.05;;
12302;SDS011;6214;48.012;7.862;2022-11-20T04:28:52;12.00;;;1.73;;
12302;SDS011;6214;48.012;7.862;2022-11-20T04:31:21;11.90;;;1.90;;
12302;SDS011;6214;48.012;7.862;2022-11-20T04:33:50;12.30;;;1.80;;
12302;SDS011;6214;48.012;7.862;2022-11-20T04:36:18;11.40;;;1.70;;
12302;SDS011;6214;48.012;7.862;2022-11-20T04:38:46;11.15;;;1.40;;
12302;SDS011;6214;48.012;7.862;2022-11-20T04:41:23;11.40;;;1.50;;
12302;SDS011;6214;48.012;7.862;2022-11-20T04:43:52;11.68;;;1.60;;
12302;SDS011;6214;48.012;7.862;2022-11-20T04:46:26;11.20;;;1.30;;
12302;SDS011;6214;48.012;7.862;2022-11-20T04:48:54;11.82;;;1.60;;
12302;SDS011;6214;48.012;7.862;2022-11-20T04:51:21;11.20;;;1.50;;
12302;SDS011;6214;48.012;7.862;2022-11-20T04:53:53;11.10;;;1.30;;
12302;SDS011;6214;48.012;7.862;2022-11-20T04:56:20;11.90;;;1.67;;
12302;SDS011;6214;48.012;7.862;2022-11-20T04:58:47;11.15;;;1.30;;
12302;SDS011;6214;48.012;7.862;2022-11-20T05:01:15;11.52;;;1.70;;
12302;SDS011;6214;48.012;7.862;2022-11-20T05:03:47;11.68;;;1.30;;
12302;SDS011;6214;48.012;7.862;2022-11-20T05:06:15;11.40;;;1.70;;
12302;SDS011;6214;48.012;7.862;2022-11-20T05:08:44;11.93;;;1.50;;
12302;SDS011;6214;48.012;7.862;2022-11-20T05:11:12;11.40;;;1.52;;
12302;SDS011;6214;48.012;7.862;2022-11-20T05:13:42;11.13;;;1.50;;
12302;SDS011;6214;48.012;7.862;2022-11-20T05:16:10;11.60;;;1.90;;
12302;SDS011;6214;48.012;7.862;2022-11-20T05:18:39;11.80;;;1.70;;
12302;SDS011;6214;48.012;7.862;2022-11-20T05:21:07;12.20;;;1.73;;
12302;SDS011;6214;48.012;7.862;2022-11-20T05:23:35;11.30;;;1.58;;
12302;SDS011;6214;48.012;7.862;2022-11-20T05:26:03;11.30;;;1.60;;
12302;SDS011;6214;48.012;7.862;2022-11-20T05:28:32;11.45;;;1.60;;
12302;SDS011;6214;48.012;7.862;2022-11-20T05:33:32;11.70;;;1.75;;
12302;SDS011;6214;48.012;7.862;2022-11-20T05:36:01;11.20;;;1.60;;
12302;SDS011;6214;48.012;7.862;2022-11-20T05:38:29;12.20;;;1.90;;
12302;SDS011;6214;48.012;7.862;2022-11-20T05:41:03;11.93;;;1.70;;
12302;SDS011;6214;48.012;7.862;2022-11-20T05:43:39;11.70;;;1.90;;
12302;SDS011;6214;48.012;7.862;2022-11-20T05:46:08;11.63;;;1.90;;
12302;SDS011;6214;48.012;7.862;2022-11-20T05:48:36;11.80;;;1.70;;
12302;SDS011;6214;48.012;7.862;2022-11-20T05:51:05;11.40;;;1.80;;
12302;SDS011;6214;48.012;7.862;2022-11-20T05:53:35;12.57;;;2.22;;
12302;SDS011;6214;48.012;7.862;2022-11-20T05:56:04;12.23;;;1.75;;
12302;SDS011;6214;48.012;7.862;2022-11-20T05:58:33;12.38;;;2.00;;
12302;SDS011;6214;48.012;7.862;2022-11-20T06:03:38;11.70;;;1.90;;
12302;SDS011;6214;48.012;7.862;2022-11-20T06:06:06;11.80;;;1.90;;
12302;SDS011;6214;48.012;7.862;2022-11-20T06:08:33;12.32;;;1.88;;
12302;SDS011;6214;48.012;7.862;2022-11-20T06:11:08;11.60;;;2.10;;
12302;SDS011;6214;48.012;7.862;2022-11-20T06:13:37;12.10;;;2.13;;
12302;SDS011;6214;48.012;7.862;2022-11-20T06:16:08;11.60;;;1.90;;
12302;SDS011;6214;48.012;7.862;2022-11-20T06:18:35;11.90;;;2.30;;
12302;SDS011;6214;48.012;7.862;2022-11-20T06:21:10;11.95;;;1.90;;
12302;SDS011;6214;48.012;7.862;2022-11-20T06:23:38;11.50;;;1.90;;
12302;SDS011;6214;48.012;7.862;2022-11-20T06:26:06;11.50;;;1.92;;
12302;SDS011;6214;48.012;7.862;2022-11-20T06:28:36;11.68;;;2.05;;
12302;SDS011;6214;48.012;7.862;2022-11-20T06:31:03;12.40;;;1.90;;
12302;SDS011;6214;48.012;7.862;2022-11-20T06:33:31;11.70;;;1.75;;
12302;SDS011;6214;48.012;7.862;2022-11-20T06:35:59;11.70;;;2.00;;
12302;SDS011;6214;48.012;7.862;2022-11-20T06:38:34;11.40;;;1.67;;
12302;SDS011;6214;48.012;7.862;2022-11-20T06:41:01;11.30;;;1.85;;
12302;SDS011;6214;48.012;7.862;2022-11-20T06:43:30;12.30;;;1.80;;
12302;SDS011;6214;48.012;7.862;2022-11-20T06:45:57;11.90;;;1.90;;
12302;SDS011;6214;48.012;7.862;2022-11-20T06:48:26;11.25;;;1.80;;
12302;SDS011;6214;48.012;7.862;2022-11-20T06:50:54;11.90;;;2.20;;
12302;SDS011;6214;48.012;7.862;2022-11-20T06:53:22;12.00;;;1.98;;
12302;SDS011;6214;48.012;7.862;2022-11-20T06:55:50;11.70;;;1.80;;
12302;SDS011;6214;48.012;7.862;2022-11-20T06:58:18;11.80;;;2.10;;
12302;SDS011;6214;48.012;7.862;2022-11-20T07:00:45;11.70;;;1.90;;
12302;SDS011;6214;48.012;7.862;2022-11-20T07:03:12;12.27;;;2.10;;
12302;SDS011;6214;48.012;7.862;2022-11-20T07:05:40;11.60;;;1.90;;
12302;SDS011;6214;48.012;7.862;2022-11-20T07:08:07;11.70;;;1.85;;
12302;SDS011;6214;48.012;7.862;2022-11-20T07:10:34;12.20;;;2.00;;
12302;SDS011;6214;48.012;7.862;2022-11-20T07:13:01;11.80;;;1.90;;
12302;SDS011;6214;48.012;7.862;2022-11-20T07:15:29;12.00;;;1.80;;
12302;SDS011;6214;48.012;7.862;2022-11-20T07:17:59;11.57;;;1.80;;
12302;SDS011;6214;48.012;7.862;2022-11-20T07:20:27;11.50;;;1.83;;
12302;SDS011;6214;48.012;7.862;2022-11-20T07:22:54;12.30;;;1.80;;
12302;SDS011;6214;48.012;7.862;2022-11-20T07:25:23;13.02;;;2.15;;
12302;SDS011;6214;48.012;7.862;2022-11-20T07:27:50;11.73;;;1.77;;
12302;SDS011;6214;48.012;7.862;2022-11-20T07:30:18;11.63;;;1.90;;
12302;SDS011;6214;48.012;7.862;2022-11-20T07:32:51;12.77;;;2.08;;
12302;SDS011;6214;48.012;7.862;2022-11-20T07:35:19;11.60;;;1.70;;
12302;SDS011;6214;48.012;7.862;2022-11-20T07:37:46;12.00;;;2.05;;
12302;SDS011;6214;48.012;7.862;2022-11-20T07:40:15;11.63;;;1.73;;
12302;SDS011;6214;48.012;7.862;2022-11-20T07:42:51;11.40;;;1.80;;
12302;SDS011;6214;48.012;7.862;2022-11-20T07:45:22;11.30;;;1.60;;
12302;SDS011;6214;48.012;7.862;2022-11-20T07:47:50;12.88;;;2.20;;
12302;SDS011;6214;48.012;7.862;2022-11-20T07:50:18;12.90;;;2.13;;
12302;SDS011;6214;48.012;7.862;2022-11-20T07:52:45;11.70;;;2.30;;
12302;SDS011;6214;48.012;7.862;2022-11-20T07:55:12;12.40;;;2.00;;
12302;SDS011;6214;48.012;7.862;2022-11-20T07:57:40;13.60;;;2.60;;
12302;SDS011;6214;48.012;7.862;2022-11-20T08:00:08;12.52;;;2.78;;
12302;SDS011;6214;48.012;7.862;2022-11-20T08:02:37;12.40;;;2.40;;
12302;SDS011;6214;48.012;7.862;2022-11-20T08:05:08;12.38;;;2.30;;
12302;SDS011;6214;48.012;7.862;2022-11-20T08:07:37;12.48;;;2.40;;
12302;SDS011;6214;48.012;7.862;2022-11-20T08:10:05;12.00;;;2.33;;
12302;SDS011;6214;48.012;7.862;2022-11-20T08:12:34;13.18;;;2.10;;
12302;SDS011;6214;48.012;7.862;2022-11-20T08:15:19;12.60;;;2.60;;
12302;SDS011;6214;48.012;7.862;2022-11-20T08:17:47;11.90;;;2.30;;
12302;SDS011;6214;48.012;7.862;2022-11-20T08:20:34;12.20;;;2.20;;
12302;SDS011;6214;48.012;7.862;2022-11-20T08:23:01;13.48;;;2.20;;
12302;SDS011;6214;48.012;7.862;2022-11-20T08:25:32;12.40;;;2.15;;
12302;SDS011;6214;48.012;7.862;2022-11-20T08:28:05;12.20;;;2.20;;
12302;SDS011;6214;48.012;7.862;2022-11-20T08:30:45;12.90;;;2.30;;
12302;SDS011;6214;48.012;7.862;2022-11-20T08:33:13;12.95;;;2.17;;
12302;SDS011;6214;48.012;7.862;2022-11-20T08:35:40;12.80;;;3.40;;
12302;SDS011;6214;48.012;7.862;2022-11-20T08:38:08;13.52;;;2.97;;
12302;SDS011;6214;48.012;7.862;2022-11-20T08:40:36;13.68;;;3.95;;
12302;SDS011;6214;48.012;7.862;2022-11-20T08:43:03;12.40;;;3.00;;
12302;SDS011;6214;48.012;7.862;2022-11-20T08:45:30;12.80;;;3.00;;
12302;SDS011;6214;48.012;7.862;2022-11-20T08:48:03;14.82;;;4.70;;
12302;SDS011;6214;48.012;7.862;2022-11-20T08:50:31;16.40;;;4.90;;
12302;SDS011;6214;48.012;7.862;2022-11-20T08:53:05;14.45;;;4.50;;
12302;SDS011;6214;48.012;7.862;2022-11-20T08:55:32;12.50;;;2.50;;
12302;SDS011;6214;48.012;7.862;2022-11-20T08:58:05;12.30;;;2.43;;
12302;SDS011;6214;48.012;7.862;2022-11-20T09:00:33;13.85;;;3.00;;
12302;SDS011;6214;48.012;7.862;2022-11-20T09:03:01;13.15;;;2.70;;
12302;SDS011;6214;48.012;7.862;2022-11-20T09:05:28;12.50;;;2.20;;
12302;SDS011;6214;48.012;7.862;2022-11-20T09:07:56;12.90;;;2.28;;
12302;SDS011;6214;48.012;7.862;2022-11-20T09:10:24;12.48;;;2.30;;
12302;SDS011;6214;48.012;7.862;2022-11-20T09:12:52;13.40;;;2.60;;
12302;SDS011;6214;48.012;7.862;2022-11-20T09:15:21;13.02;;;2.38;;
12302;SDS011;6214;48.012;7.862;2022-11-20T09:17:56;14.57;;;3.20;;
12302;SDS011;6214;48.012;7.862;2022-11-20T09:20:28;13.60;;;2.70;;
12302;SDS011;6214;48.012;7.862;2022-11-20T09:22:56;12.60;;;2.20;;
12302;SDS011;6214;48.012;7.862;2022-11-20T09:25:24;13.80;;;3.00;;
12302;SDS011;6214;48.012;7.862;2022-11-20T09:27:57;12.00;;;2.30;;
12302;SDS011;6214;48.012;7.862;2022-11-20T09:30:25;13.50;;;2.85;;
12302;SDS011;6214;48.012;7.862;2022-11-20T09:32:53;11.90;;;2.45;;
12302;SDS011;6214;48.012;7.862;2022-11-20T09:35:20;12.55;;;2.40;;
12302;SDS011;6214;48.012;7.862;2022-11-20T09:37:47;11.70;;;1.90;;
12302;SDS011;6214;48.012;7.862;2022-11-20T09:40:19;11.90;;;2.30;;
12302;SDS011;6214;48.012;7.862;2022-11-20T09:51:13;11.60;;;2.00;;
12302;SDS011;6214;48.012;7.862;2022-11-20T09:56:36;13.63;;;2.47;;
12302;SDS011;6214;48.012;7.862;2022-11-20T09:59:07;12.50;;;2.30;;
12302;SDS011;6214;48.012;7.862;2022-11-20T10:01:50;12.70;;;2.28;;
12302;SDS011;6214;48.012;7.862;2022-11-20T10:04:17;12.50;;;2.50;;
12302;SDS011;6214;48.012;7.862;2022-11-20T10:06:48;12.88;;;2.30;;
12302;SDS011;6214;48.012;7.862;2022-11-20T10:09:52;12.30;;;2.00;;
12302;SDS011;6214;48.012;7.862;2022-11-20T10:23:44;12.40;;;2.20;;
12302;SDS011;6214;48.012;7.862;2022-11-20T10:29:10;13.00;;;2.40;;
12302;SDS011;6214;48.012;7.862;2022-11-20T10:31:48;12.20;;;2.20;;
12302;SDS011;6214;48.012;7.862;2022-11-20T10:37:05;13.95;;;2.55;;
12302;SDS011;6214;48.012;7.862;2022-11-20T10:39:43;12.02;;;2.03;;
12302;SDS011;6214;48.012;7.862;2022-11-20T10:42:13;13.32;;;2.50;;
12302;SDS011;6214;48.012;7.862;2022-11-20T10:44:48;14.10;;;4.07;;
12302;SDS011;6214;48.012;7.862;2022-11-20T10:47:35;13.77;;;3.45;;
12302;SDS011;6214;48.012;7.862;2022-11-20T10:50:04;13.05;;;2.67;;
12302;SDS011;6214;48.012;7.862;2022-11-20T10:52:40;11.85;;;2.13;;
12302;SDS011;6214;48.012;7.862;2022-11-20T11:01:05;14.50;;;3.20;;
12302;SDS011;6214;48.012;7.862;2022-11-20T11:03:39;12.40;;;2.60;;
12302;SDS011;6214;48.012;7.862;2022-11-20T11:06:27;13.20;;;2.80;;
12302;SDS011;6214;48.012;7.862;2022-11-20T11:09:02;13.82;;;2.75;;
12302;SDS011;6214;48.012;7.862;2022-11-20T11:11:35;13.68;;;2.50;;
12302;SDS011;6214;48.012;7.862;2022-11-20T11:14:08;12.63;;;2.50;;
12302;SDS011;6214;48.012;7.862;2022-11-20T11:19:20;12.57;;;2.47;;
12302;SDS011;6214;48.012;7.862;2022-11-20T11:21:55;12.63;;;2.60;;
12302;SDS011;6214;48.012;7.862;2022-11-20T11:24:24;13.67;;;2.63;;
12302;SDS011;6214;48.012;7.862;2022-11-20T11:27:11;12.52;;;2.70;;
12302;SDS011;6214;48.012;7.862;2022-11-20T11:29:44;12.10;;;2.20;;
12302;SDS011;6214;48.012;7.862;2022-11-20T11:32:13;14.00;;;2.50;;
12302;SDS011;6214;48.012;7.862;2022-11-20T11:35:02;12.60;;;2.60;;
12302;SDS011;6214;48.012;7.862;2022-11-20T11:37:47;14.40;;;2.70;;
12302;SDS011;6214;48.012;7.862;2022-11-20T11:40:15;12.95;;;2.25;;
12302;SDS011;6214;48.012;7.862;2022-11-20T11:42:56;13.05;;;1.98;;
12302;SDS011;6214;48.012;7.862;2022-11-20T11:45:26;12.80;;;2.20;;
12302;SDS011;6214;48.012;7.862;2022-11-20T11:47:54;12.38;;;1.92;;
12302;SDS011;6214;48.012;7.862;2022-11-20T11:50:25;12.77;;;2.15;;
12302;SDS011;6214;48.012;7.862;2022-11-20T12:00:51;12.90;;;2.00;;
12302;SDS011;6214;48.012;7.862;2022-11-20T12:03:27;11.80;;;1.70;;
12302;SDS011;6214;48.012;7.862;2022-11-20T12:06:01;12.95;;;2.20;;
12302;SDS011;6214;48.012;7.862;2022-11-20T12:08:53;12.07;;;1.90;;
12302;SDS011;6214;48.012;7.862;2022-11-20T12:11:36;12.00;;;2.20;;
12302;SDS011;6214;48.012;7.862;2022-11-20T12:14:14;12.20;;;1.58;;
12302;SDS011;6214;48.012;7.862;2022-11-20T12:16:50;11.70;;;1.60;;
12302;SDS011;6214;48.012;7.862;2022-11-20T12:19:19;13.07;;;1.77;;
12302;SDS011;6214;48.012;7.862;2022-11-20T12:32:55;11.60;;;1.50;;
12302;SDS011;6214;48.012;7.862;2022-11-20T12:40:59;12.25;;;1.50;;
12302;SDS011;6214;48.012;7.862;2022-11-20T12:43:39;12.30;;;1.73;;
12302;SDS011;6214;48.012;7.862;2022-11-20T12:46:50;12.70;;;1.90;;
12302;SDS011;6214;48.012;7.862;2022-11-20T12:49:48;13.90;;;1.70;;
12302;SDS011;6214;48.012;7.862;2022-11-20T12:52:47;12.15;;;1.70;;
12302;SDS011;6214;48.012;7.862;2022-11-20T13:00:38;13.25;;;1.70;;
12302;SDS011;6214;48.012;7.862;2022-11-20T13:06:02;12.10;;;1.80;;
12302;SDS011;6214;48.012;7.862;2022-11-20T13:08:41;13.05;;;2.00;;
12302;SDS011;6214;48.012;7.862;2022-11-20T13:16:30;13.25;;;1.92;;
12302;SDS011;6214;48.012;7.862;2022-11-20T13:19:09;12.40;;;1.90;;
12302;SDS011;6214;48.012;7.862;2022-11-20T13:21:40;13.60;;;1.80;;
12302;SDS011;6214;48.012;7.862;2022-11-20T13:27:04;12.40;;;2.13;;
12302;SDS011;6214;48.012;7.862;2022-11-20T13:29:46;12.18;;;1.80;;
12302;SDS011;6214;48.012;7.862;2022-11-20T13:32:25;11.98;;;1.73;;
12302;SDS011;6214;48.012;7.862;2022-11-20T13:34:59;12.77;;;2.10;;
12302;SDS011;6214;48.012;7.862;2022-11-20T13:45:10;12.48;;;1.20;;
12302;SDS011;6214;48.012;7.862;2022-11-20T13:47:49;12.57;;;1.60;;
12302;SDS011;6214;48.012;7.862;2022-11-20T13:50:17;12.82;;;2.05;;
12302;SDS011;6214;48.012;7.862;2022-11-20T13:52:55;12.85;;;1.60;;
12302;SDS011;6214;48.012;7.862;2022-11-20T13:55:42;12.47;;;1.67;;
12302;SDS011;6214;48.012;7.862;2022-11-20T13:58:56;14.70;;;2.10;;
12302;SDS011;6214;48.012;7.862;2022-11-20T14:01:23;12.15;;;1.60;;
12302;SDS011;6214;48.012;7.862;2022-11-20T14:03:52;12.70;;;1.70;;
12302;SDS011;6214;48.012;7.862;2022-11-20T14:06:40;12.00;;;1.50;;
12302;SDS011;6214;48.012;7.862;2022-11-20T14:09:13;12.10;;;1.45;;
12302;SDS011;6214;48.012;7.862;2022-11-20T14:11:52;13.00;;;1.70;;
12302;SDS011;6214;48.012;7.862;2022-11-20T14:14:20;14.90;;;2.20;;
12302;SDS011;6214;48.012;7.862;2022-11-20T14:16:49;12.15;;;1.70;;
12302;SDS011;6214;48.012;7.862;2022-11-20T14:21:49;11.80;;;1.40;;
12302;SDS011;6214;48.012;7.862;2022-11-20T14:24:22;12.25;;;1.50;;
12302;SDS011;6214;48.012;7.862;2022-11-20T14:26:51;11.90;;;1.43;;
12302;SDS011;6214;48.012;7.862;2022-11-20T14:29:19;12.30;;;1.52;;
12302;SDS011;6214;48.012;7.862;2022-11-20T14:31:53;12.15;;;1.75;;
12302;SDS011;6214;48.012;7.862;2022-11-20T14:34:23;12.40;;;1.60;;
12302;SDS011;6214;48.012;7.862;2022-11-20T14:36:53;13.40;;;2.05;;
12302;SDS011;6214;48.012;7.862;2022-11-20T14:42:15;13.18;;;1.90;;
12302;SDS011;6214;48.012;7.862;2022-11-20T14:44:50;12.43;;;1.50;;
12302;SDS011;6214;48.012;7.862;2022-11-20T14:47:21;12.75;;;2.38;;
12302;SDS011;6214;48.012;7.862;2022-11-20T14:49:52;13.10;;;2.70;;
12302;SDS011;6214;48.012;7.862;2022-11-20T14:52:21;12.50;;;1.60;;
12302;SDS011;6214;48.012;7.862;2022-11-20T14:54:53;13.38;;;1.80;;
12302;SDS011;6214;48.012;7.862;2022-11-20T15:00:18;13.27;;;2.08;;
12302;SDS011;6214;48.012;7.862;2022-11-20T15:02:48;12.50;;;1.90;;
12302;SDS011;6214;48.012;7.862;2022-11-20T15:05:18;12.40;;;1.40;;
12302;SDS011;6214;48.012;7.862;2022-11-20T15:07:48;11.90;;;1.60;;
12302;SDS011;6214;48.012;7.862;2022-11-20T15:12:49;12.48;;;2.10;;
12302;SDS011;6214;48.012;7.862;2022-11-20T15:15:25;12.23;;;1.70;;
12302;SDS011;6214;48.012;7.862;2022-11-20T15:17:56;13.00;;;1.80;;
12302;SDS011;6214;48.012;7.862;2022-11-20T15:20:25;12.30;;;1.90;;
12302;SDS011;6214;48.012;7.862;2022-11-20T15:22:58;11.80;;;2.10;;
12302;SDS011;6214;48.012;7.862;2022-11-20T15:25:25;12.30;;;1.70;;
12302;SDS011;6214;48.012;7.862;2022-11-20T15:27:54;12.23;;;1.70;;
12302;SDS011;6214;48.012;7.862;2022-11-20T15:30:23;12.20;;;1.88;;
12302;SDS011;6214;48.012;7.862;2022-11-20T15:32:50;12.82;;;2.30;;
12302;SDS011;6214;48.012;7.862;2022-11-20T15:35:17;12.82;;;2.13;;
12302;SDS011;6214;48.012;7.862;2022-11-20T15:37:44;13.18;;;2.53;;
12302;SDS011;6214;48.012;7.862;2022-11-20T15:40:12;12.18;;;2.30;;
12302;SDS011;6214;48.012;7.862;2022-11-20T15:42:39;12.20;;;1.70;;
12302;SDS011;6214;48.012;7.862;2022-11-20T15:45:26;12.50;;;2.20;;
12302;SDS011;6214;48.012;7.862;2022-11-20T15:47:57;13.10;;;2.70;;
12302;SDS011;6214;48.012;7.862;2022-11-20T15:50:25;12.20;;;2.50;;
12302;SDS011;6214;48.012;7.862;2022-11-20T15:52:56;12.15;;;1.73;;
12302;SDS011;6214;48.012;7.862;2022-11-20T15:55:23;11.60;;;1.77;;
12302;SDS011;6214;48.012;7.862;2022-11-20T15:57:50;12.35;;;2.25;;
12302;SDS011;6214;48.012;7.862;2022-11-20T16:00:17;12.45;;;1.75;;
12302;SDS011;6214;48.012;7.862;2022-11-20T16:02:49;12.63;;;1.58;;
12302;SDS011;6214;48.012;7.862;2022-11-20T16:05:17;12.25;;;2.00;;
12302;SDS011;6214;48.012;7.862;2022-11-20T16:07:44;12.60;;;2.22;;
12302;SDS011;6214;48.012;7.862;2022-11-20T16:10:11;12.00;;;1.85;;
12302;SDS011;6214;48.012;7.862;2022-11-20T16:12:38;13.10;;;2.10;;
12302;SDS011;6214;48.012;7.862;2022-11-20T16:15:24;11.65;;;1.40;;
12302;SDS011;6214;48.012;7.862;2022-11-20T16:18:10;11.93;;;1.60;;
12302;SDS011;6214;48.012;7.862;2022-11-20T16:20:38;11.63;;;1.40;;
12302;SDS011;6214;48.012;7.862;2022-11-20T16:23:06;11.90;;;1.30;;
12302;SDS011;6214;48.012;7.862;2022-11-20T16:25:33;11.65;;;1.50;;
12302;SDS011;6214;48.012;7.862;2022-11-20T16:28:00;11.25;;;1.40;;
12302;SDS011;6214;48.012;7.862;2022-11-20T16:30:27;12.20;;;1.30;;
12302;SDS011;6214;48.012;7.862;2022-11-20T16:32:54;11.52;;;1.50;;
12302;SDS011;6214;48.012;7.862;2022-11-20T16:35:21;12.20;;;1.30;;
12302;SDS011;6214;48.012;7.862;2022-11-20T16:37:48;11.68;;;1.40;;
12302;SDS011;6214;48.012;7.862;2022-11-20T16:40:15;11.90;;;1.45;;
12302;SDS011;6214;48.012;7.862;2022-11-20T16:42:42;12.60;;;1.80;;
12302;SDS011;6214;48.012;7.862;2022-11-20T16:45:09;11.70;;;1.50;;
12302;SDS011;6214;48.012;7.862;2022-11-20T16:47:36;11.23;;;1.10;;
12302;SDS011;6214;48.012;7.862;2022-11-20T16:50:04;11.60;;;1.30;;
12302;SDS011;6214;48.012;7.862;2022-11-20T16:52:31;13.80;;;2.35;;
12302;SDS011;6214;48.012;7.862;2022-11-20T16:54:59;13.27;;;2.67;;
12302;SDS011;6214;48.012;7.862;2022-11-20T16:57:29;15.40;;;4.75;;